sensor_id;sensor_type;location;lat;lon;timestamp;P1;durP1;ratioP1;P2;durP2;ratioP2
53775;SDS011;44276;49.534;6.378;2023-02-24T00:00:18;36.28;;;16.85;;
53775;SDS011;44276;49.534;6.378;2023-02-24T00:03:03;34.08;;;15.00;;
53775;SDS011;44276;49.534;6.378;2023-02-24T00:05:37;36.55;;;15.18;;
53775;SDS011;44276;49.534;6.378;2023-02-24T00:08:09;33.45;;;14.55;;
53775;SDS011;44276;49.534;6.378;2023-02-24T00:10:39;42.10;;;19.23;;
53775;SDS011;44276;49.534;6.378;2023-02-24T00:13:07;37.33;;;16.75;;
53775;SDS011;44276;49.534;6.378;2023-02-24T00:15:37;38.88;;;16.27;;
53775;SDS011;44276;49.534;6.378;2023-02-24T00:18:05;44.13;;;16.00;;
53775;SDS011;44276;49.534;6.378;2023-02-24T00:20:34;46.90;;;15.68;;
53775;SDS011;44276;49.534;6.378;2023-02-24T00:23:02;30.27;;;13.18;;
53775;SDS011;44276;49.534;6.378;2023-02-24T00:25:30;37.03;;;14.55;;
53775;SDS011;44276;49.534;6.378;2023-02-24T00:28:00;39.80;;;15.35;;
53775;SDS011;44276;49.534;6.378;2023-02-24T00:30:28;33.30;;;13.30;;
53775;SDS011;44276;49.534;6.378;2023-02-24T00:32:58;39.50;;;16.70;;
53775;SDS011;44276;49.534;6.378;2023-02-24T00:35:28;43.13;;;16.45;;
53775;SDS011;44276;49.534;6.378;2023-02-24T00:37:56;42.25;;;14.98;;
53775;SDS011;44276;49.534;6.378;2023-02-24T00:40:25;32.78;;;14.93;;
53775;SDS011;44276;49.534;6.378;2023-02-24T00:42:55;39.17;;;16.20;;
53775;SDS011;44276;49.534;6.378;2023-02-24T00:45:28;37.83;;;16.40;;
53775;SDS011;44276;49.534;6.378;2023-02-24T00:47:59;39.67;;;16.10;;
53775;SDS011;44276;49.534;6.378;2023-02-24T00:50:29;35.58;;;15.07;;
53775;SDS011;44276;49.534;6.378;2023-02-24T00:52:58;38.92;;;15.73;;
53775;SDS011;44276;49.534;6.378;2023-02-24T00:55:27;42.17;;;15.48;;
53775;SDS011;44276;49.534;6.378;2023-02-24T00:58:02;38.25;;;17.25;;
53775;SDS011;44276;49.534;6.378;2023-02-24T01:00:34;34.22;;;14.27;;
53775;SDS011;44276;49.534;6.378;2023-02-24T01:03:02;48.63;;;16.08;;
53775;SDS011;44276;49.534;6.378;2023-02-24T01:05:34;32.92;;;15.55;;
53775;SDS011;44276;49.534;6.378;2023-02-24T01:08:03;29.15;;;12.88;;
53775;SDS011;44276;49.534;6.378;2023-02-24T01:10:31;36.40;;;14.52;;
53775;SDS011;44276;49.534;6.378;2023-02-24T01:13:00;37.50;;;15.00;;
53775;SDS011;44276;49.534;6.378;2023-02-24T01:15:28;32.30;;;14.18;;
53775;SDS011;44276;49.534;6.378;2023-02-24T01:17:58;36.30;;;13.63;;
53775;SDS011;44276;49.534;6.378;2023-02-24T01:20:26;33.42;;;13.52;;
53775;SDS011;44276;49.534;6.378;2023-02-24T01:22:55;25.25;;;12.32;;
53775;SDS011;44276;49.534;6.378;2023-02-24T01:25:24;32.08;;;12.98;;
53775;SDS011;44276;49.534;6.378;2023-02-24T01:27:56;36.33;;;13.57;;
53775;SDS011;44276;49.534;6.378;2023-02-24T01:30:24;31.83;;;13.85;;
53775;SDS011;44276;49.534;6.378;2023-02-24T01:32:52;30.95;;;13.05;;
53775;SDS011;44276;49.534;6.378;2023-02-24T01:35:25;31.65;;;12.63;;
53775;SDS011;44276;49.534;6.378;2023-02-24T01:37:53;27.20;;;12.70;;
53775;SDS011;44276;49.534;6.378;2023-02-24T01:40:21;33.33;;;16.42;;
53775;SDS011;44276;49.534;6.378;2023-02-24T01:42:52;38.72;;;14.60;;
53775;SDS011;44276;49.534;6.378;2023-02-24T01:45:21;39.95;;;15.82;;
53775;SDS011;44276;49.534;6.378;2023-02-24T01:47:55;40.35;;;14.98;;
53775;SDS011;44276;49.534;6.378;2023-02-24T01:50:28;32.92;;;12.73;;
53775;SDS011;44276;49.534;6.378;2023-02-24T01:52:59;33.67;;;13.25;;
53775;SDS011;44276;49.534;6.378;2023-02-24T01:55:32;39.67;;;14.68;;
53775;SDS011;44276;49.534;6.378;2023-02-24T01:58:07;35.97;;;14.13;;
53775;SDS011;44276;49.534;6.378;2023-02-24T02:00:42;36.92;;;13.95;;
53775;SDS011;44276;49.534;6.378;2023-02-24T02:03:18;29.40;;;12.75;;
53775;SDS011;44276;49.534;6.378;2023-02-24T02:05:57;33.88;;;14.68;;
53775;SDS011;44276;49.534;6.378;2023-02-24T02:08:28;35.47;;;14.55;;
53775;SDS011;44276;49.534;6.378;2023-02-24T02:10:57;32.45;;;11.88;;
53775;SDS011;44276;49.534;6.378;2023-02-24T02:13:31;26.05;;;13.38;;
53775;SDS011;44276;49.534;6.378;2023-02-24T02:16:22;34.00;;;14.07;;
53775;SDS011;44276;49.534;6.378;2023-02-24T02:19:16;33.20;;;13.13;;
53775;SDS011;44276;49.534;6.378;2023-02-24T02:25:53;35.72;;;14.70;;
53775;SDS011;44276;49.534;6.378;2023-02-24T02:28:53;37.28;;;13.93;;
53775;SDS011;44276;49.534;6.378;2023-02-24T02:31:56;33.53;;;16.83;;
53775;SDS011;44276;49.534;6.378;2023-02-24T02:34:58;36.50;;;15.45;;
53775;SDS011;44276;49.534;6.378;2023-02-24T02:37:39;28.95;;;12.65;;
53775;SDS011;44276;49.534;6.378;2023-02-24T02:40:19;34.53;;;14.65;;
53775;SDS011;44276;49.534;6.378;2023-02-24T02:43:05;36.75;;;15.80;;
53775;SDS011;44276;49.534;6.378;2023-02-24T02:45:45;33.60;;;14.50;;
53775;SDS011;44276;49.534;6.378;2023-02-24T02:48:23;44.15;;;16.13;;
53775;SDS011;44276;49.534;6.378;2023-02-24T02:51:02;33.65;;;13.85;;
53775;SDS011;44276;49.534;6.378;2023-02-24T02:53:37;47.40;;;15.82;;
53775;SDS011;44276;49.534;6.378;2023-02-24T02:56:15;45.15;;;16.00;;
53775;SDS011;44276;49.534;6.378;2023-02-24T02:58:48;41.83;;;15.98;;
53775;SDS011;44276;49.534;6.378;2023-02-24T03:01:22;47.22;;;16.50;;
53775;SDS011;44276;49.534;6.378;2023-02-24T03:03:57;43.17;;;14.95;;
53775;SDS011;44276;49.534;6.378;2023-02-24T03:06:33;46.17;;;15.35;;
53775;SDS011;44276;49.534;6.378;2023-02-24T03:09:08;40.08;;;15.07;;
53775;SDS011;44276;49.534;6.378;2023-02-24T03:11:44;34.85;;;14.18;;
53775;SDS011;44276;49.534;6.378;2023-02-24T03:14:21;36.13;;;14.30;;
53775;SDS011;44276;49.534;6.378;2023-02-24T03:16:55;38.65;;;14.57;;
53775;SDS011;44276;49.534;6.378;2023-02-24T03:19:31;41.95;;;15.43;;
53775;SDS011;44276;49.534;6.378;2023-02-24T03:22:08;29.35;;;13.70;;
53775;SDS011;44276;49.534;6.378;2023-02-24T03:24:43;39.90;;;13.57;;
53775;SDS011;44276;49.534;6.378;2023-02-24T03:27:14;52.83;;;16.20;;
53775;SDS011;44276;49.534;6.378;2023-02-24T03:29:51;40.20;;;14.57;;
53775;SDS011;44276;49.534;6.378;2023-02-24T03:32:27;39.70;;;16.13;;
53775;SDS011;44276;49.534;6.378;2023-02-24T03:35:10;44.70;;;15.07;;
53775;SDS011;44276;49.534;6.378;2023-02-24T03:37:45;45.03;;;14.73;;
53775;SDS011;44276;49.534;6.378;2023-02-24T03:42:46;37.17;;;13.30;;
53775;SDS011;44276;49.534;6.378;2023-02-24T03:45:19;40.83;;;14.43;;
53775;SDS011;44276;49.534;6.378;2023-02-24T03:47:48;38.53;;;15.55;;
53775;SDS011;44276;49.534;6.378;2023-02-24T03:50:21;39.55;;;13.00;;
53775;SDS011;44276;49.534;6.378;2023-02-24T03:52:54;40.75;;;14.35;;
53775;SDS011;44276;49.534;6.378;2023-02-24T03:55:43;39.08;;;14.52;;
53775;SDS011;44276;49.534;6.378;2023-02-24T04:01:07;34.55;;;11.93;;
53775;SDS011;44276;49.534;6.378;2023-02-24T04:03:48;39.40;;;15.48;;
53775;SDS011;44276;49.534;6.378;2023-02-24T04:06:30;52.22;;;15.15;;
53775;SDS011;44276;49.534;6.378;2023-02-24T04:09:14;43.53;;;15.05;;
53775;SDS011;44276;49.534;6.378;2023-02-24T04:11:55;40.80;;;15.10;;
53775;SDS011;44276;49.534;6.378;2023-02-24T04:14:37;40.85;;;16.70;;
53775;SDS011;44276;49.534;6.378;2023-02-24T04:17:15;47.83;;;16.45;;
53775;SDS011;44276;49.534;6.378;2023-02-24T04:19:50;39.47;;;14.05;;
53775;SDS011;44276;49.534;6.378;2023-02-24T04:22:25;45.53;;;14.52;;
53775;SDS011;44276;49.534;6.378;2023-02-24T04:24:57;47.50;;;15.18;;
53775;SDS011;44276;49.534;6.378;2023-02-24T04:27:31;44.92;;;16.95;;
53775;SDS011;44276;49.534;6.378;2023-02-24T04:30:00;46.35;;;22.77;;
53775;SDS011;44276;49.534;6.378;2023-02-24T04:32:31;53.90;;;19.83;;
53775;SDS011;44276;49.534;6.378;2023-02-24T04:35:01;52.88;;;17.73;;
53775;SDS011;44276;49.534;6.378;2023-02-24T04:37:32;46.22;;;16.92;;
53775;SDS011;44276;49.534;6.378;2023-02-24T04:40:04;46.13;;;15.55;;
53775;SDS011;44276;49.534;6.378;2023-02-24T04:42:37;47.72;;;15.77;;
53775;SDS011;44276;49.534;6.378;2023-02-24T04:45:12;49.03;;;15.35;;
53775;SDS011;44276;49.534;6.378;2023-02-24T04:47:43;46.88;;;16.38;;
53775;SDS011;44276;49.534;6.378;2023-02-24T04:50:14;43.20;;;16.02;;
53775;SDS011;44276;49.534;6.378;2023-02-24T04:52:49;54.88;;;17.75;;
53775;SDS011;44276;49.534;6.378;2023-02-24T04:55:21;54.50;;;17.42;;
53775;SDS011;44276;49.534;6.378;2023-02-24T04:57:54;52.28;;;15.30;;
53775;SDS011;44276;49.534;6.378;2023-02-24T05:00:23;51.90;;;15.70;;
53775;SDS011;44276;49.534;6.378;2023-02-24T05:02:58;51.60;;;16.58;;
53775;SDS011;44276;49.534;6.378;2023-02-24T05:05:28;51.72;;;17.20;;
53775;SDS011;44276;49.534;6.378;2023-02-24T05:07:59;52.60;;;17.73;;
53775;SDS011;44276;49.534;6.378;2023-02-24T05:10:35;63.10;;;17.08;;
53775;SDS011;44276;49.534;6.378;2023-02-24T05:13:07;60.03;;;18.17;;
53775;SDS011;44276;49.534;6.378;2023-02-24T05:15:39;58.67;;;18.85;;
53775;SDS011;44276;49.534;6.378;2023-02-24T05:18:10;46.40;;;15.23;;
53775;SDS011;44276;49.534;6.378;2023-02-24T05:20:42;50.08;;;16.73;;
53775;SDS011;44276;49.534;6.378;2023-02-24T05:23:33;48.58;;;14.50;;
53775;SDS011;44276;49.534;6.378;2023-02-24T05:26:07;54.58;;;17.33;;
53775;SDS011;44276;49.534;6.378;2023-02-24T05:28:37;51.78;;;18.50;;
53775;SDS011;44276;49.534;6.378;2023-02-24T05:31:08;50.90;;;18.00;;
53775;SDS011;44276;49.534;6.378;2023-02-24T05:33:41;56.00;;;17.63;;
53775;SDS011;44276;49.534;6.378;2023-02-24T05:36:14;62.15;;;19.55;;
53775;SDS011;44276;49.534;6.378;2023-02-24T05:38:44;49.30;;;19.52;;
53775;SDS011;44276;49.534;6.378;2023-02-24T05:41:16;65.93;;;20.35;;
53775;SDS011;44276;49.534;6.378;2023-02-24T05:43:46;51.10;;;17.60;;
53775;SDS011;44276;49.534;6.378;2023-02-24T05:46:20;57.95;;;18.65;;
53775;SDS011;44276;49.534;6.378;2023-02-24T05:48:53;59.13;;;17.38;;
53775;SDS011;44276;49.534;6.378;2023-02-24T05:51:23;55.50;;;17.83;;
53775;SDS011;44276;49.534;6.378;2023-02-24T05:53:52;60.00;;;19.10;;
53775;SDS011;44276;49.534;6.378;2023-02-24T05:56:22;55.63;;;19.45;;
53775;SDS011;44276;49.534;6.378;2023-02-24T05:58:50;53.60;;;16.85;;
53775;SDS011;44276;49.534;6.378;2023-02-24T06:01:27;48.45;;;17.40;;
53775;SDS011;44276;49.534;6.378;2023-02-24T06:03:58;62.65;;;18.42;;
53775;SDS011;44276;49.534;6.378;2023-02-24T06:06:32;60.88;;;19.92;;
53775;SDS011;44276;49.534;6.378;2023-02-24T06:09:01;50.28;;;15.88;;
53775;SDS011;44276;49.534;6.378;2023-02-24T06:11:38;55.15;;;18.85;;
53775;SDS011;44276;49.534;6.378;2023-02-24T06:14:09;51.13;;;17.30;;
53775;SDS011;44276;49.534;6.378;2023-02-24T06:16:39;47.30;;;15.98;;
53775;SDS011;44276;49.534;6.378;2023-02-24T06:19:12;49.95;;;19.30;;
53775;SDS011;44276;49.534;6.378;2023-02-24T06:21:42;52.83;;;17.33;;
53775;SDS011;44276;49.534;6.378;2023-02-24T06:24:14;57.92;;;19.13;;
53775;SDS011;44276;49.534;6.378;2023-02-24T06:26:45;56.33;;;17.50;;
53775;SDS011;44276;49.534;6.378;2023-02-24T06:29:15;51.85;;;18.48;;
53775;SDS011;44276;49.534;6.378;2023-02-24T06:31:44;50.90;;;19.98;;
53775;SDS011;44276;49.534;6.378;2023-02-24T06:34:14;53.60;;;18.60;;
53775;SDS011;44276;49.534;6.378;2023-02-24T06:36:43;50.58;;;18.45;;
53775;SDS011;44276;49.534;6.378;2023-02-24T06:39:12;55.83;;;18.35;;
53775;SDS011;44276;49.534;6.378;2023-02-24T06:41:42;42.53;;;16.77;;
53775;SDS011;44276;49.534;6.378;2023-02-24T06:44:16;59.08;;;17.05;;
53775;SDS011;44276;49.534;6.378;2023-02-24T06:46:45;50.05;;;18.48;;
53775;SDS011;44276;49.534;6.378;2023-02-24T06:49:13;56.80;;;17.60;;
53775;SDS011;44276;49.534;6.378;2023-02-24T06:51:41;54.05;;;17.50;;
53775;SDS011;44276;49.534;6.378;2023-02-24T06:54:09;49.13;;;18.88;;
53775;SDS011;44276;49.534;6.378;2023-02-24T06:56:38;60.10;;;20.40;;
53775;SDS011;44276;49.534;6.378;2023-02-24T06:59:07;35.60;;;14.43;;
53775;SDS011;44276;49.534;6.378;2023-02-24T07:01:39;48.75;;;15.98;;
53775;SDS011;44276;49.534;6.378;2023-02-24T07:04:10;55.65;;;17.30;;
53775;SDS011;44276;49.534;6.378;2023-02-24T07:06:47;47.40;;;17.55;;
53775;SDS011;44276;49.534;6.378;2023-02-24T07:09:18;48.95;;;15.38;;
53775;SDS011;44276;49.534;6.378;2023-02-24T07:11:50;49.20;;;17.42;;
53775;SDS011;44276;49.534;6.378;2023-02-24T07:14:22;50.67;;;16.95;;
53775;SDS011;44276;49.534;6.378;2023-02-24T07:17:13;41.92;;;16.70;;
53775;SDS011;44276;49.534;6.378;2023-02-24T07:19:44;35.00;;;15.85;;
53775;SDS011;44276;49.534;6.378;2023-02-24T07:22:12;42.70;;;15.63;;
53775;SDS011;44276;49.534;6.378;2023-02-24T07:24:42;37.85;;;16.85;;
53775;SDS011;44276;49.534;6.378;2023-02-24T07:27:12;45.92;;;17.42;;
53775;SDS011;44276;49.534;6.378;2023-02-24T07:29:48;29.13;;;10.90;;
53775;SDS011;44276;49.534;6.378;2023-02-24T07:32:20;32.25;;;13.75;;
53775;SDS011;44276;49.534;6.378;2023-02-24T07:34:51;40.15;;;14.68;;
53775;SDS011;44276;49.534;6.378;2023-02-24T07:37:19;36.50;;;15.55;;
53775;SDS011;44276;49.534;6.378;2023-02-24T07:39:50;38.45;;;16.20;;
53775;SDS011;44276;49.534;6.378;2023-02-24T07:42:19;35.30;;;14.50;;
53775;SDS011;44276;49.534;6.378;2023-02-24T07:44:47;36.05;;;16.85;;
53775;SDS011;44276;49.534;6.378;2023-02-24T07:47:17;44.42;;;16.13;;
53775;SDS011;44276;49.534;6.378;2023-02-24T07:49:48;33.63;;;13.98;;
53775;SDS011;44276;49.534;6.378;2023-02-24T07:52:16;34.85;;;15.63;;
53775;SDS011;44276;49.534;6.378;2023-02-24T07:54:45;32.72;;;13.15;;
53775;SDS011;44276;49.534;6.378;2023-02-24T07:57:15;31.83;;;14.18;;
53775;SDS011;44276;49.534;6.378;2023-02-24T07:59:44;29.25;;;14.05;;
53775;SDS011;44276;49.534;6.378;2023-02-24T08:02:19;33.45;;;14.25;;
53775;SDS011;44276;49.534;6.378;2023-02-24T08:04:53;32.88;;;14.10;;
53775;SDS011;44276;49.534;6.378;2023-02-24T08:07:22;37.17;;;15.80;;
53775;SDS011;44276;49.534;6.378;2023-02-24T08:09:51;33.10;;;15.32;;
53775;SDS011;44276;49.534;6.378;2023-02-24T08:12:49;33.28;;;17.20;;
53775;SDS011;44276;49.534;6.378;2023-02-24T08:15:21;34.28;;;13.90;;
53775;SDS011;44276;49.534;6.378;2023-02-24T08:17:52;35.95;;;15.05;;
53775;SDS011;44276;49.534;6.378;2023-02-24T08:20:26;25.77;;;12.35;;
53775;SDS011;44276;49.534;6.378;2023-02-24T08:23:01;35.22;;;15.52;;
53775;SDS011;44276;49.534;6.378;2023-02-24T08:25:35;31.60;;;14.35;;
53775;SDS011;44276;49.534;6.378;2023-02-24T08:28:09;30.52;;;13.80;;
53775;SDS011;44276;49.534;6.378;2023-02-24T08:30:42;38.88;;;14.40;;
53775;SDS011;44276;49.534;6.378;2023-02-24T08:33:12;52.53;;;15.57;;
53775;SDS011;44276;49.534;6.378;2023-02-24T08:35:50;40.25;;;16.98;;
53775;SDS011;44276;49.534;6.378;2023-02-24T08:38:28;35.53;;;15.15;;
53775;SDS011;44276;49.534;6.378;2023-02-24T08:41:11;39.92;;;15.40;;
53775;SDS011;44276;49.534;6.378;2023-02-24T08:43:54;36.15;;;15.75;;
53775;SDS011;44276;49.534;6.378;2023-02-24T08:46:23;35.63;;;14.88;;
53775;SDS011;44276;49.534;6.378;2023-02-24T08:48:58;37.22;;;14.32;;
53775;SDS011;44276;49.534;6.378;2023-02-24T08:51:31;30.27;;;14.50;;
53775;SDS011;44276;49.534;6.378;2023-02-24T08:54:10;34.13;;;14.00;;
53775;SDS011;44276;49.534;6.378;2023-02-24T08:56:42;41.67;;;17.70;;
53775;SDS011;44276;49.534;6.378;2023-02-24T08:59:16;31.42;;;14.38;;
53775;SDS011;44276;49.534;6.378;2023-02-24T09:02:04;31.38;;;14.73;;
53775;SDS011;44276;49.534;6.378;2023-02-24T09:04:50;28.30;;;14.27;;
53775;SDS011;44276;49.534;6.378;2023-02-24T09:07:24;28.70;;;12.25;;
53775;SDS011;44276;49.534;6.378;2023-02-24T09:09:55;30.02;;;13.75;;
53775;SDS011;44276;49.534;6.378;2023-02-24T09:12:24;26.30;;;13.18;;
53775;SDS011;44276;49.534;6.378;2023-02-24T09:15:00;26.35;;;13.55;;
53775;SDS011;44276;49.534;6.378;2023-02-24T09:17:42;30.00;;;14.63;;
53775;SDS011;44276;49.534;6.378;2023-02-24T09:20:32;25.48;;;13.27;;
53775;SDS011;44276;49.534;6.378;2023-02-24T09:23:22;27.98;;;12.30;;
53775;SDS011;44276;49.534;6.378;2023-02-24T09:26:22;27.25;;;13.32;;
53775;SDS011;44276;49.534;6.378;2023-02-24T09:29:09;24.60;;;13.60;;
53775;SDS011;44276;49.534;6.378;2023-02-24T09:31:56;24.77;;;12.52;;
53775;SDS011;44276;49.534;6.378;2023-02-24T09:34:35;28.55;;;14.27;;
53775;SDS011;44276;49.534;6.378;2023-02-24T09:37:14;30.50;;;13.90;;
53775;SDS011;44276;49.534;6.378;2023-02-24T09:39:58;24.77;;;13.88;;
53775;SDS011;44276;49.534;6.378;2023-02-24T09:42:44;24.85;;;12.98;;
53775;SDS011;44276;49.534;6.378;2023-02-24T09:45:23;24.40;;;12.30;;
53775;SDS011;44276;49.534;6.378;2023-02-24T09:50:48;24.67;;;12.07;;
53775;SDS011;44276;49.534;6.378;2023-02-24T09:53:38;27.15;;;13.23;;
53775;SDS011;44276;49.534;6.378;2023-02-24T09:56:17;22.88;;;11.98;;
53775;SDS011;44276;49.534;6.378;2023-02-24T09:59:11;21.50;;;11.85;;
53775;SDS011;44276;49.534;6.378;2023-02-24T10:01:58;22.20;;;10.98;;
53775;SDS011;44276;49.534;6.378;2023-02-24T10:04:52;25.15;;;12.68;;
53775;SDS011;44276;49.534;6.378;2023-02-24T10:07:41;23.20;;;12.88;;
53775;SDS011;44276;49.534;6.378;2023-02-24T10:10:26;24.95;;;11.30;;
53775;SDS011;44276;49.534;6.378;2023-02-24T10:13:33;23.25;;;11.95;;
53775;SDS011;44276;49.534;6.378;2023-02-24T10:16:18;24.02;;;11.73;;
53775;SDS011;44276;49.534;6.378;2023-02-24T10:18:53;20.05;;;10.68;;
53775;SDS011;44276;49.534;6.378;2023-02-24T10:21:43;25.88;;;11.88;;
53775;SDS011;44276;49.534;6.378;2023-02-24T10:24:28;23.67;;;12.15;;
53775;SDS011;44276;49.534;6.378;2023-02-24T10:27:22;22.45;;;10.98;;
53775;SDS011;44276;49.534;6.378;2023-02-24T10:30:02;19.10;;;10.38;;
53775;SDS011;44276;49.534;6.378;2023-02-24T10:32:47;23.10;;;12.50;;
53775;SDS011;44276;49.534;6.378;2023-02-24T10:35:27;19.00;;;11.57;;
53775;SDS011;44276;49.534;6.378;2023-02-24T10:38:09;18.17;;;11.43;;
53775;SDS011;44276;49.534;6.378;2023-02-24T10:40:48;23.95;;;11.52;;
53775;SDS011;44276;49.534;6.378;2023-02-24T10:43:23;20.90;;;10.15;;
53775;SDS011;44276;49.534;6.378;2023-02-24T10:46:27;24.13;;;10.30;;
53775;SDS011;44276;49.534;6.378;2023-02-24T10:49:08;23.85;;;10.75;;
53775;SDS011;44276;49.534;6.378;2023-02-24T10:51:47;24.15;;;9.88;;
53775;SDS011;44276;49.534;6.378;2023-02-24T10:54:24;25.35;;;9.80;;
53775;SDS011;44276;49.534;6.378;2023-02-24T10:57:20;16.63;;;8.52;;
53775;SDS011;44276;49.534;6.378;2023-02-24T11:00:15;17.25;;;8.50;;
53775;SDS011;44276;49.534;6.378;2023-02-24T11:03:11;16.80;;;8.30;;
53775;SDS011;44276;49.534;6.378;2023-02-24T11:06:03;17.65;;;8.40;;
53775;SDS011;44276;49.534;6.378;2023-02-24T11:08:57;16.67;;;8.77;;
53775;SDS011;44276;49.534;6.378;2023-02-24T11:11:45;12.40;;;7.07;;
53775;SDS011;44276;49.534;6.378;2023-02-24T11:14:38;13.95;;;7.45;;
53775;SDS011;44276;49.534;6.378;2023-02-24T11:17:43;12.82;;;6.03;;
53775;SDS011;44276;49.534;6.378;2023-02-24T11:20:26;11.73;;;6.82;;
53775;SDS011;44276;49.534;6.378;2023-02-24T11:23:15;8.70;;;4.85;;
53775;SDS011;44276;49.534;6.378;2023-02-24T11:25:50;9.25;;;5.65;;
53775;SDS011;44276;49.534;6.378;2023-02-24T11:31:29;8.45;;;3.60;;
53775;SDS011;44276;49.534;6.378;2023-02-24T11:34:15;11.63;;;4.63;;
53775;SDS011;44276;49.534;6.378;2023-02-24T11:36:56;10.85;;;4.80;;
53775;SDS011;44276;49.534;6.378;2023-02-24T11:39:51;15.88;;;7.70;;
53775;SDS011;44276;49.534;6.378;2023-02-24T11:42:26;13.15;;;5.47;;
53775;SDS011;44276;49.534;6.378;2023-02-24T11:45:03;15.30;;;5.63;;
53775;SDS011;44276;49.534;6.378;2023-02-24T11:47:46;7.65;;;4.50;;
53775;SDS011;44276;49.534;6.378;2023-02-24T11:50:25;9.27;;;5.75;;
53775;SDS011;44276;49.534;6.378;2023-02-24T11:53:24;9.00;;;5.55;;
53775;SDS011;44276;49.534;6.378;2023-02-24T11:55:59;11.77;;;6.00;;
53775;SDS011;44276;49.534;6.378;2023-02-24T11:58:36;10.27;;;6.05;;
53775;SDS011;44276;49.534;6.378;2023-02-24T12:01:13;9.18;;;4.90;;
53775;SDS011;44276;49.534;6.378;2023-02-24T12:03:53;11.20;;;6.43;;
53775;SDS011;44276;49.534;6.378;2023-02-24T12:06:33;12.55;;;5.13;;
53775;SDS011;44276;49.534;6.378;2023-02-24T12:09:10;9.98;;;5.10;;
53775;SDS011;44276;49.534;6.378;2023-02-24T12:11:47;10.48;;;6.38;;
53775;SDS011;44276;49.534;6.378;2023-02-24T12:14:25;11.77;;;6.40;;
53775;SDS011;44276;49.534;6.378;2023-02-24T12:17:11;17.40;;;6.57;;
53775;SDS011;44276;49.534;6.378;2023-02-24T12:19:54;12.13;;;6.53;;
53775;SDS011;44276;49.534;6.378;2023-02-24T12:22:32;12.18;;;6.80;;
53775;SDS011;44276;49.534;6.378;2023-02-24T12:25:14;10.82;;;5.38;;
53775;SDS011;44276;49.534;6.378;2023-02-24T12:27:49;12.80;;;6.60;;
53775;SDS011;44276;49.534;6.378;2023-02-24T12:30:36;12.50;;;6.90;;
53775;SDS011;44276;49.534;6.378;2023-02-24T12:33:29;16.90;;;6.47;;
53775;SDS011;44276;49.534;6.378;2023-02-24T12:36:32;13.80;;;6.25;;
53775;SDS011;44276;49.534;6.378;2023-02-24T12:39:21;14.43;;;7.30;;
53775;SDS011;44276;49.534;6.378;2023-02-24T12:42:04;13.20;;;6.95;;
53775;SDS011;44276;49.534;6.378;2023-02-24T12:44:47;15.52;;;7.18;;
53775;SDS011;44276;49.534;6.378;2023-02-24T12:47:32;12.30;;;6.50;;
53775;SDS011;44276;49.534;6.378;2023-02-24T12:50:24;11.77;;;6.60;;
53775;SDS011;44276;49.534;6.378;2023-02-24T12:53:07;11.85;;;6.97;;
53775;SDS011;44276;49.534;6.378;2023-02-24T12:55:46;13.75;;;7.03;;
53775;SDS011;44276;49.534;6.378;2023-02-24T12:58:31;11.23;;;6.38;;
53775;SDS011;44276;49.534;6.378;2023-02-24T13:01:10;11.65;;;6.53;;
53775;SDS011;44276;49.534;6.378;2023-02-24T13:03:55;12.52;;;6.65;;
53775;SDS011;44276;49.534;6.378;2023-02-24T13:06:59;11.63;;;5.60;;
53775;SDS011;44276;49.534;6.378;2023-02-24T13:09:39;13.30;;;6.85;;
53775;SDS011;44276;49.534;6.378;2023-02-24T13:12:19;10.10;;;5.78;;
53775;SDS011;44276;49.534;6.378;2023-02-24T13:14:59;12.68;;;5.32;;
53775;SDS011;44276;49.534;6.378;2023-02-24T13:17:30;10.70;;;6.38;;
53775;SDS011;44276;49.534;6.378;2023-02-24T13:20:08;11.02;;;5.45;;
53775;SDS011;44276;49.534;6.378;2023-02-24T13:22:40;7.25;;;4.10;;
53775;SDS011;44276;49.534;6.378;2023-02-24T13:25:16;14.32;;;6.47;;
53775;SDS011;44276;49.534;6.378;2023-02-24T13:27:55;11.40;;;6.30;;
53775;SDS011;44276;49.534;6.378;2023-02-24T13:30:33;11.95;;;6.22;;
53775;SDS011;44276;49.534;6.378;2023-02-24T13:33:22;11.35;;;5.80;;
53775;SDS011;44276;49.534;6.378;2023-02-24T13:36:15;9.93;;;5.35;;
53775;SDS011;44276;49.534;6.378;2023-02-24T13:38:47;12.73;;;6.05;;
53775;SDS011;44276;49.534;6.378;2023-02-24T13:44:20;11.30;;;6.10;;
53775;SDS011;44276;49.534;6.378;2023-02-24T13:50:20;9.85;;;5.72;;
53775;SDS011;44276;49.534;6.378;2023-02-24T13:53:01;11.43;;;5.57;;
53775;SDS011;44276;49.534;6.378;2023-02-24T13:55:57;9.43;;;5.00;;
53775;SDS011;44276;49.534;6.378;2023-02-24T13:58:49;10.98;;;4.80;;
53775;SDS011;44276;49.534;6.378;2023-02-24T14:01:43;9.07;;;5.03;;
53775;SDS011;44276;49.534;6.378;2023-02-24T14:04:17;9.90;;;4.63;;
53775;SDS011;44276;49.534;6.378;2023-02-24T14:06:54;9.35;;;5.47;;
53775;SDS011;44276;49.534;6.378;2023-02-24T14:09:27;10.43;;;4.93;;
53775;SDS011;44276;49.534;6.378;2023-02-24T14:12:02;9.13;;;4.72;;
53775;SDS011;44276;49.534;6.378;2023-02-24T14:14:39;14.00;;;5.68;;
53775;SDS011;44276;49.534;6.378;2023-02-24T14:17:18;7.18;;;4.30;;
53775;SDS011;44276;49.534;6.378;2023-02-24T14:19:54;14.60;;;6.38;;
53775;SDS011;44276;49.534;6.378;2023-02-24T14:22:41;6.90;;;4.65;;
53775;SDS011;44276;49.534;6.378;2023-02-24T14:25:11;7.40;;;3.55;;
53775;SDS011;44276;49.534;6.378;2023-02-24T14:27:41;9.80;;;3.10;;
53775;SDS011;44276;49.534;6.378;2023-02-24T14:30:19;6.30;;;3.53;;
53775;SDS011;44276;49.534;6.378;2023-02-24T14:32:57;9.32;;;3.92;;
53775;SDS011;44276;49.534;6.378;2023-02-24T14:35:29;3.55;;;2.47;;
53775;SDS011;44276;49.534;6.378;2023-02-24T14:38:02;7.00;;;2.83;;
53775;SDS011;44276;49.534;6.378;2023-02-24T14:40:31;8.75;;;3.80;;
53775;SDS011;44276;49.534;6.378;2023-02-24T14:43:00;9.35;;;4.20;;
53775;SDS011;44276;49.534;6.378;2023-02-24T14:45:29;6.35;;;3.05;;
53775;SDS011;44276;49.534;6.378;2023-02-24T14:47:57;5.97;;;3.58;;
53775;SDS011;44276;49.534;6.378;2023-02-24T14:50:27;5.50;;;3.25;;
53775;SDS011;44276;49.534;6.378;2023-02-24T14:53:00;5.53;;;3.28;;
53775;SDS011;44276;49.534;6.378;2023-02-24T14:55:39;9.63;;;4.88;;
53775;SDS011;44276;49.534;6.378;2023-02-24T14:58:14;6.30;;;3.63;;
53775;SDS011;44276;49.534;6.378;2023-02-24T15:00:49;7.07;;;3.80;;
53775;SDS011;44276;49.534;6.378;2023-02-24T15:03:24;4.75;;;2.45;;
53775;SDS011;44276;49.534;6.378;2023-02-24T15:05:58;9.52;;;3.58;;
53775;SDS011;44276;49.534;6.378;2023-02-24T15:08:34;7.97;;;3.28;;
53775;SDS011;44276;49.534;6.378;2023-02-24T15:11:09;10.50;;;4.38;;
53775;SDS011;44276;49.534;6.378;2023-02-24T15:13:49;5.78;;;3.20;;
53775;SDS011;44276;49.534;6.378;2023-02-24T15:16:21;7.18;;;3.78;;
53775;SDS011;44276;49.534;6.378;2023-02-24T15:18:54;8.18;;;3.83;;
53775;SDS011;44276;49.534;6.378;2023-02-24T15:21:27;6.78;;;3.38;;
53775;SDS011;44276;49.534;6.378;2023-02-24T15:23:59;8.02;;;4.22;;
53775;SDS011;44276;49.534;6.378;2023-02-24T15:26:31;6.78;;;3.58;;
53775;SDS011;44276;49.534;6.378;2023-02-24T15:29:01;10.55;;;3.95;;
53775;SDS011;44276;49.534;6.378;2023-02-24T15:31:44;9.32;;;4.50;;
53775;SDS011;44276;49.534;6.378;2023-02-24T15:34:15;5.68;;;3.65;;
53775;SDS011;44276;49.534;6.378;2023-02-24T15:36:47;7.70;;;3.70;;
53775;SDS011;44276;49.534;6.378;2023-02-24T15:39:20;5.03;;;2.15;;
53775;SDS011;44276;49.534;6.378;2023-02-24T15:42:04;6.72;;;3.65;;